createdAt,value
2022-08-11T00:01:55.899Z,1.88
2022-08-11T00:04:26.148Z,1.70
2022-08-11T00:06:53.655Z,1.83
2022-08-11T00:09:22.295Z,1.77
2022-08-11T00:11:58.706Z,1.75
2022-08-11T00:14:37.862Z,2.00
2022-08-11T00:17:06.647Z,1.77
2022-08-11T00:20:11.883Z,1.92
2022-08-11T00:22:25.125Z,2.15
2022-08-11T00:24:58.518Z,2.00
2022-08-11T00:27:35.542Z,1.95
2022-08-11T00:30:02.631Z,1.88
2022-08-11T00:32:30.389Z,1.60
2022-08-11T00:35:54.133Z,1.80
2022-08-11T00:37:55.892Z,1.63
2022-08-11T00:40:33.797Z,1.80
2022-08-11T00:43:07.562Z,1.80
2022-08-11T00:45:42.741Z,1.73
2022-08-11T00:48:22.711Z,1.88
2022-08-11T00:50:52.637Z,2.10
2022-08-11T00:53:34.400Z,1.83
2022-08-11T00:56:19.871Z,2.13
2022-08-11T00:58:52.671Z,1.92
2022-08-11T01:01:21.190Z,1.77
2022-08-11T01:04:07.025Z,1.90
2022-08-11T01:06:49.826Z,1.73
2022-08-11T01:09:35.037Z,2.00
2022-08-11T01:12:10.572Z,2.00
2022-08-11T01:14:56.092Z,1.90
2022-08-11T01:17:41.192Z,1.65
2022-08-11T01:20:46.666Z,2.00
2022-08-11T01:23:08.004Z,1.90
2022-08-11T01:25:57.997Z,1.88
2022-08-11T01:28:39.635Z,2.10
2022-08-11T01:31:15.767Z,1.90
2022-08-11T01:34:01.428Z,2.10
2022-08-11T01:36:53.613Z,2.20
2022-08-11T01:39:27.141Z,1.98
2022-08-11T01:42:24.374Z,2.10
2022-08-11T01:44:51.781Z,1.73
2022-08-11T01:47:53.466Z,1.70
2022-08-11T01:50:28.706Z,1.95
2022-08-11T01:52:55.479Z,2.28
2022-08-11T01:55:26.879Z,2.20
2022-08-11T01:57:56.983Z,1.65
2022-08-11T02:00:28.421Z,2.17
2022-08-11T02:02:58.493Z,1.83
2022-08-11T02:05:30.830Z,1.58
2022-08-11T02:08:02.010Z,1.73
2022-08-11T02:10:55.033Z,1.80
2022-08-11T02:13:36.725Z,1.73
2022-08-11T02:16:10.782Z,1.80
2022-08-11T02:18:57.543Z,2.00
2022-08-11T02:21:46.942Z,1.88
2022-08-11T02:24:29.257Z,1.65
2022-08-11T02:27:06.916Z,2.00
2022-08-11T02:29:39.042Z,1.80
2022-08-11T02:32:31.328Z,2.00
2022-08-11T02:35:14.480Z,1.85
2022-08-11T02:37:51.166Z,2.00
2022-08-11T02:40:22.201Z,1.95
2022-08-11T02:42:55.351Z,1.75
2022-08-11T02:45:27.915Z,1.65
2022-08-11T02:48:17.036Z,1.80
2022-08-11T02:51:02.331Z,1.60
2022-08-11T02:53:58.152Z,1.83
2022-08-11T02:56:40.228Z,1.85
2022-08-11T02:59:27.356Z,1.75
2022-08-11T03:02:06.314Z,1.67
2022-08-11T03:04:49.970Z,1.70
2022-08-11T03:07:29.177Z,1.83
2022-08-11T03:10:08.117Z,1.92
2022-08-11T03:12:59.938Z,1.83
2022-08-11T03:15:48.556Z,1.45
2022-08-11T03:18:34.061Z,1.90
2022-08-11T03:21:07.765Z,1.77
2022-08-11T03:23:39.385Z,1.88
2022-08-11T03:26:29.862Z,2.05
2022-08-11T03:29:01.747Z,1.60
2022-08-11T03:31:30.623Z,1.85
2022-08-11T03:34:12.918Z,1.83
2022-08-11T03:37:15.168Z,1.50
2022-08-11T03:39:55.523Z,2.38
2022-08-11T03:42:42.584Z,1.63
2022-08-11T03:45:15.371Z,2.22
2022-08-11T03:48:01.064Z,2.00
2022-08-11T03:50:33.311Z,1.85
2022-08-11T03:53:03.067Z,1.73
2022-08-11T03:55:47.796Z,1.73
2022-08-11T03:58:35.063Z,1.65
2022-08-11T04:01:07.448Z,1.70
2022-08-11T04:03:40.096Z,1.83
2022-08-11T04:06:25.647Z,1.75
2022-08-11T04:08:55.723Z,2.15
2022-08-11T04:11:41.537Z,1.85
2022-08-11T04:14:55.036Z,2.00
2022-08-11T04:17:36.826Z,1.63
2022-08-11T04:20:06.435Z,1.98
2022-08-11T04:22:52.911Z,1.95
2022-08-11T04:25:30.323Z,1.73
2022-08-11T04:28:28.448Z,1.98
2022-08-11T04:31:06.430Z,1.90
2022-08-11T04:33:46.675Z,1.63
2022-08-11T04:36:54.607Z,2.10
2022-08-11T04:39:39.942Z,1.90
2022-08-11T04:42:31.949Z,1.88
2022-08-11T04:45:12.316Z,1.92
2022-08-11T04:48:07.326Z,1.85
2022-08-11T04:51:24.900Z,1.85
2022-08-11T04:54:28.978Z,1.90
2022-08-11T04:57:18.206Z,1.85
2022-08-11T05:00:22.700Z,1.80
2022-08-11T05:03:07.881Z,1.63
2022-08-11T05:05:57.640Z,2.00
2022-08-11T05:08:46.027Z,1.80
2022-08-11T05:11:31.246Z,2.00
2022-08-11T05:14:33.519Z,2.58
2022-08-11T05:17:39.243Z,2.10
2022-08-11T05:20:28.098Z,1.80
2022-08-11T05:23:13.796Z,2.20
2022-08-11T05:26:45.040Z,1.90
2022-08-11T05:29:20.836Z,2.00
2022-08-11T05:32:14.799Z,2.08
2022-08-11T05:34:56.001Z,2.00
2022-08-11T05:37:43.290Z,2.13
2022-08-11T05:40:30.169Z,2.28
2022-08-11T05:43:31.009Z,2.20
2022-08-11T05:46:17.546Z,2.35
2022-08-11T05:49:02.966Z,2.00
2022-08-11T05:51:57.109Z,2.20
2022-08-11T05:54:50.406Z,2.50
2022-08-11T05:57:42.376Z,1.95
2022-08-11T06:00:10.540Z,2.42
2022-08-11T06:02:48.691Z,2.25
2022-08-11T06:05:19.844Z,2.50
2022-08-11T06:07:49.613Z,2.50
2022-08-11T06:10:27.697Z,2.05
2022-08-11T06:12:58.117Z,2.25
2022-08-11T06:15:25.603Z,2.63
2022-08-11T06:17:52.525Z,2.63
2022-08-11T06:20:19.876Z,2.25
2022-08-11T06:22:52.478Z,2.55
2022-08-11T06:25:20.650Z,2.20
2022-08-11T06:27:56.665Z,2.22
2022-08-11T06:30:36.452Z,1.95
2022-08-11T06:33:04.624Z,2.10
2022-08-11T06:35:37.983Z,2.00
2022-08-11T06:38:07.762Z,2.30
2022-08-11T06:40:37.740Z,2.05
2022-08-11T06:43:12.013Z,2.38
2022-08-11T06:45:57.482Z,2.67
2022-08-11T06:48:28.675Z,2.10
2022-08-11T06:51:12.984Z,2.20
2022-08-11T06:53:39.736Z,2.03
2022-08-11T06:56:26.448Z,2.03
2022-08-11T06:59:12.024Z,2.15
2022-08-11T07:01:49.717Z,2.10
2022-08-11T07:04:28.002Z,1.83
2022-08-11T07:07:19.040Z,1.83
2022-08-11T07:10:23.155Z,2.40
2022-08-11T07:13:09.215Z,1.73
2022-08-11T07:16:12.928Z,2.00
2022-08-11T07:18:59.785Z,2.13
2022-08-11T07:22:02.329Z,2.00
2022-08-11T07:25:01.439Z,1.80
2022-08-11T07:27:55.803Z,1.67
2022-08-11T07:30:25.027Z,2.13
2022-08-11T07:32:52.991Z,1.73
2022-08-11T07:35:42.646Z,1.90
2022-08-11T07:38:12.947Z,1.88
2022-08-11T07:40:43.600Z,2.15
2022-08-11T07:43:11.373Z,1.90
2022-08-11T07:46:00.944Z,2.00
2022-08-11T07:48:46.811Z,1.90
2022-08-11T07:51:37.034Z,2.15
2022-08-11T07:54:16.573Z,1.83
2022-08-11T07:56:54.911Z,1.70
2022-08-11T08:00:00.208Z,2.10
2022-08-11T08:02:49.130Z,1.33
2022-08-11T08:05:35.093Z,1.92
2022-08-11T08:08:21.121Z,1.48
2022-08-11T08:11:06.770Z,1.75
2022-08-11T08:13:52.619Z,1.88
2022-08-11T08:16:38.737Z,1.70
2022-08-11T08:19:05.782Z,1.52
2022-08-11T08:21:32.454Z,1.33
2022-08-11T08:23:59.254Z,1.48
2022-08-11T08:26:48.350Z,1.23
2022-08-11T08:29:39.142Z,1.50
2022-08-11T08:32:07.183Z,1.40
2022-08-11T08:34:35.701Z,1.33
2022-08-11T08:37:02.753Z,1.45
2022-08-11T08:39:45.140Z,1.55
2022-08-11T08:42:12.906Z,1.38
2022-08-11T08:44:45.394Z,1.40
2022-08-11T08:47:15.019Z,1.17
2022-08-11T08:50:04.337Z,0.50
2022-08-11T08:52:38.732Z,1.52
2022-08-11T08:55:07.565Z,1.42
2022-08-11T08:57:38.875Z,1.70
2022-08-11T09:00:13.000Z,1.48
2022-08-11T09:02:41.513Z,1.40
2022-08-11T09:05:11.514Z,1.45
2022-08-11T09:07:41.690Z,1.40
2022-08-11T09:10:09.780Z,1.40
2022-08-11T09:12:40.799Z,1.33
2022-08-11T09:15:10.511Z,1.27
2022-08-11T09:17:40.725Z,1.10
2022-08-11T09:20:29.528Z,1.50
2022-08-11T09:26:21.468Z,1.30
2022-08-11T09:28:50.227Z,1.50
2022-08-11T09:31:17.157Z,1.10
2022-08-11T09:33:44.470Z,1.45
2022-08-11T09:36:31.373Z,1.40
2022-08-11T09:39:16.947Z,1.40
2022-08-11T09:42:00.687Z,1.20
2022-08-11T09:44:48.842Z,1.40
2022-08-11T09:47:19.177Z,1.35
2022-08-11T09:49:46.417Z,1.00
2022-08-11T09:52:14.488Z,1.42
2022-08-11T09:54:48.009Z,1.40
2022-08-11T09:57:34.510Z,1.48
2022-08-11T10:00:12.859Z,1.05
2022-08-11T10:02:45.442Z,1.63
2022-08-11T10:05:32.806Z,0.90
2022-08-11T10:08:01.624Z,0.63
2022-08-11T10:10:29.765Z,1.20
2022-08-11T10:13:03.136Z,1.02
2022-08-11T10:15:34.277Z,1.30
2022-08-11T10:18:32.926Z,1.00
2022-08-11T10:21:07.023Z,0.98
2022-08-11T10:24:00.451Z,1.20
2022-08-11T10:26:51.595Z,0.63
2022-08-11T10:29:49.682Z,1.40
2022-08-11T10:32:57.930Z,1.05
2022-08-11T10:35:26.617Z,1.30
2022-08-11T10:38:15.643Z,1.13
2022-08-11T10:40:41.526Z,0.40
2022-08-11T10:43:14.255Z,1.10
2022-08-11T10:46:18.818Z,0.90
2022-08-11T10:48:57.505Z,0.80
2022-08-11T10:51:50.708Z,0.98
2022-08-11T10:54:37.261Z,1.15
2022-08-11T10:57:22.727Z,0.80
2022-08-11T10:59:49.881Z,1.40
2022-08-11T11:02:19.572Z,1.20
2022-08-11T11:04:58.791Z,1.20
2022-08-11T11:07:44.047Z,0.95
2022-08-11T11:10:11.524Z,1.20
2022-08-11T11:13:04.663Z,0.98
2022-08-11T11:15:53.951Z,1.10
2022-08-11T11:18:36.120Z,0.25
2022-08-11T11:21:10.269Z,1.02
2022-08-11T11:23:49.136Z,1.05
2022-08-11T11:26:27.147Z,1.13
2022-08-11T11:29:12.702Z,0.90
2022-08-11T11:31:56.585Z,1.10
2022-08-11T11:34:53.082Z,0.80
2022-08-11T11:37:22.724Z,1.13
2022-08-11T11:39:49.891Z,1.20
2022-08-11T11:42:19.372Z,1.25
2022-08-11T11:44:47.129Z,1.40
2022-08-11T11:47:15.185Z,1.02
2022-08-11T11:49:44.254Z,0.90
2022-08-11T11:52:19.198Z,1.58
2022-08-11T11:54:46.599Z,1.20
2022-08-11T11:57:33.411Z,1.23
2022-08-11T12:00:18.544Z,0.88
2022-08-11T12:02:45.521Z,1.65
2022-08-11T12:05:13.133Z,1.73
2022-08-11T12:08:05.220Z,1.20
2022-08-11T12:10:40.922Z,0.77
2022-08-11T12:13:25.820Z,0.90
2022-08-11T12:16:32.871Z,1.30
2022-08-11T12:18:40.556Z,1.13
2022-08-11T12:21:08.311Z,0.98
2022-08-11T12:23:54.104Z,0.90
2022-08-11T12:26:41.171Z,1.20
2022-08-11T12:29:09.818Z,1.35
2022-08-11T12:31:38.229Z,1.20
2022-08-11T12:34:07.189Z,1.98
2022-08-11T12:36:35.965Z,0.90
2022-08-11T12:39:23.188Z,1.10
2022-08-11T12:42:08.709Z,1.00
2022-08-11T12:44:55.746Z,0.98
2022-08-11T12:47:22.494Z,0.80
2022-08-11T12:50:20.839Z,1.00
2022-08-11T12:52:54.184Z,1.10
2022-08-11T12:55:42.775Z,1.10
2022-08-11T12:58:29.725Z,1.10
2022-08-11T13:01:15.144Z,1.00
2022-08-11T13:04:00.640Z,0.90
2022-08-11T13:06:27.847Z,1.10
2022-08-11T13:09:01.050Z,1.10
2022-08-11T13:11:56.529Z,1.10
2022-08-11T13:14:25.845Z,1.33
2022-08-11T13:17:11.528Z,1.05
2022-08-11T13:19:38.500Z,1.00
2022-08-11T13:22:07.607Z,1.15
2022-08-11T13:24:34.567Z,1.30
2022-08-11T13:27:04.824Z,1.17
2022-08-11T13:29:31.728Z,1.10
2022-08-11T13:32:00.090Z,1.00
2022-08-11T13:34:28.009Z,1.33
2022-08-11T13:36:56.821Z,1.20
2022-08-11T13:39:25.192Z,0.93
2022-08-11T13:41:57.070Z,1.10
2022-08-11T13:44:27.477Z,1.48
2022-08-11T13:47:02.695Z,1.13
2022-08-11T13:49:30.453Z,1.20
2022-08-11T13:51:57.798Z,1.40
2022-08-11T13:54:27.421Z,1.42
2022-08-11T13:57:00.000Z,1.30
2022-08-11T13:59:30.325Z,1.10
2022-08-11T14:02:21.224Z,1.30
2022-08-11T14:04:50.796Z,1.00
2022-08-11T14:07:22.528Z,1.30
2022-08-11T14:09:56.479Z,1.30
2022-08-11T14:12:46.593Z,0.90
2022-08-11T14:15:36.347Z,1.30
2022-08-11T14:18:05.473Z,1.13
2022-08-11T14:20:53.126Z,1.00
2022-08-11T14:23:24.310Z,1.27
2022-08-11T14:26:09.872Z,1.23
2022-08-11T14:28:43.717Z,1.10
2022-08-11T14:31:12.859Z,1.35
2022-08-11T14:34:01.040Z,1.52
2022-08-11T14:36:32.678Z,1.60
2022-08-11T14:39:01.453Z,1.40
2022-08-11T14:42:10.923Z,1.27
2022-08-11T14:44:55.417Z,1.48
2022-08-11T14:47:23.901Z,1.30
2022-08-11T14:50:03.082Z,1.55
2022-08-11T14:52:50.471Z,1.60
2022-08-11T14:55:36.380Z,1.60
2022-08-11T14:58:03.476Z,1.73
2022-08-11T15:00:33.655Z,1.55
2022-08-11T15:03:13.904Z,1.13
2022-08-11T15:05:57.583Z,1.15
2022-08-11T15:08:50.539Z,1.50
2022-08-11T15:11:37.043Z,1.13
2022-08-11T15:14:07.872Z,1.13
2022-08-11T15:16:55.290Z,1.38
2022-08-11T15:19:25.440Z,1.17
2022-08-11T15:22:11.092Z,1.63
2022-08-11T15:24:40.729Z,1.70
2022-08-11T15:27:30.045Z,1.98
2022-08-11T15:30:26.872Z,1.60
2022-08-11T15:33:18.801Z,1.45
2022-08-11T15:36:03.813Z,1.60
2022-08-11T15:38:33.537Z,1.52
2022-08-11T15:41:19.744Z,1.70
2022-08-11T15:44:08.379Z,1.50
2022-08-11T15:46:52.395Z,1.80
2022-08-11T15:49:23.733Z,1.50
2022-08-11T15:52:03.144Z,1.40
2022-08-11T15:54:32.014Z,1.45
2022-08-11T15:57:05.865Z,1.17
2022-08-11T15:59:54.656Z,1.70
2022-08-11T16:02:41.765Z,1.55
2022-08-11T16:05:12.013Z,1.25
2022-08-11T16:07:40.487Z,1.65
2022-08-11T16:10:18.780Z,1.30
2022-08-11T16:13:22.517Z,1.67
2022-08-11T16:16:10.175Z,1.77
2022-08-11T16:18:41.854Z,1.90
2022-08-11T16:21:10.602Z,1.58
2022-08-11T16:24:01.298Z,1.52
2022-08-11T16:27:08.155Z,1.65
2022-08-11T16:29:16.909Z,1.80
2022-08-11T16:32:03.727Z,1.48
2022-08-11T16:34:50.094Z,1.73
2022-08-11T16:37:36.753Z,1.70
2022-08-11T16:40:04.212Z,1.98
2022-08-11T16:43:00.164Z,1.63
2022-08-11T16:45:55.966Z,1.95
2022-08-11T16:48:33.474Z,1.48
2022-08-11T16:51:06.032Z,1.98
2022-08-11T16:54:03.709Z,1.33
2022-08-11T16:56:22.162Z,1.65
2022-08-11T16:59:12.411Z,1.52
2022-08-11T17:01:39.632Z,1.30
2022-08-11T17:04:47.522Z,1.73
2022-08-11T17:07:40.371Z,1.67
2022-08-11T17:10:51.341Z,1.60
2022-08-11T17:13:24.133Z,1.92
2022-08-11T17:16:07.105Z,1.77
2022-08-11T17:18:43.741Z,1.70
2022-08-11T17:21:13.403Z,1.70
2022-08-11T17:23:48.249Z,1.60
2022-08-11T17:26:19.835Z,1.75
2022-08-11T17:28:51.525Z,1.85
2022-08-11T17:31:40.336Z,1.40
2022-08-11T17:34:26.598Z,1.80
2022-08-11T17:36:56.391Z,1.63
2022-08-11T17:39:29.414Z,1.67
2022-08-11T17:42:15.350Z,1.95
2022-08-11T17:45:02.513Z,2.20
2022-08-11T17:47:48.638Z,1.70
2022-08-11T17:50:17.888Z,1.55
2022-08-11T17:53:04.413Z,1.67
2022-08-11T17:55:52.242Z,1.75
2022-08-11T17:58:39.734Z,1.30
2022-08-11T18:01:09.161Z,1.50
2022-08-11T18:03:40.114Z,1.90
2022-08-11T18:06:12.482Z,1.50
2022-08-11T18:09:00.480Z,1.50
2022-08-11T18:12:10.744Z,1.45
2022-08-11T18:14:55.992Z,1.33
2022-08-11T18:17:41.460Z,1.70
2022-08-11T18:20:26.987Z,1.20
2022-08-11T18:23:14.588Z,1.38
2022-08-11T18:26:02.769Z,1.65
2022-08-11T18:28:58.149Z,1.50
2022-08-11T18:31:44.461Z,1.45
2022-08-11T18:34:32.995Z,1.40
2022-08-11T18:37:19.967Z,1.30
2022-08-11T18:40:09.063Z,1.30
2022-08-11T18:42:56.002Z,1.40
2022-08-11T18:45:45.926Z,1.50
2022-08-11T18:48:37.486Z,1.10
2022-08-11T18:51:31.042Z,1.02
2022-08-11T18:54:26.184Z,1.30
2022-08-11T18:57:12.522Z,1.45
2022-08-11T18:59:58.921Z,1.70
2022-08-11T19:02:49.441Z,1.35
2022-08-11T19:06:05.947Z,1.60
2022-08-11T19:08:45.930Z,1.40
2022-08-11T19:11:32.536Z,1.50
2022-08-11T19:14:18.930Z,1.17
2022-08-11T19:17:05.435Z,1.60
2022-08-11T19:19:51.663Z,1.30
2022-08-11T19:22:36.767Z,1.20
2022-08-11T19:25:25.617Z,1.58
2022-08-11T19:28:12.936Z,1.20
2022-08-11T19:30:59.526Z,1.23
2022-08-11T19:34:02.518Z,1.25
2022-08-11T19:36:51.614Z,1.23
2022-08-11T19:39:38.205Z,1.23
2022-08-11T19:42:25.877Z,1.52
2022-08-11T19:45:11.829Z,1.38
2022-08-11T19:48:21.058Z,1.50
2022-08-11T19:51:06.742Z,1.30
2022-08-11T19:53:53.255Z,1.20
2022-08-11T19:56:39.353Z,1.30
2022-08-11T19:59:25.368Z,1.25
2022-08-11T20:02:13.418Z,1.17
2022-08-11T20:04:59.503Z,1.50
2022-08-11T20:07:45.077Z,1.48
2022-08-11T20:10:31.995Z,1.20
2022-08-11T20:13:21.343Z,1.38
2022-08-11T20:16:07.362Z,1.50
2022-08-11T20:18:53.531Z,1.65
2022-08-11T20:21:39.282Z,1.40
2022-08-11T20:24:25.525Z,1.40
2022-08-11T20:27:18.901Z,1.23
2022-08-11T20:30:10.324Z,1.52
2022-08-11T20:32:55.955Z,1.17
2022-08-11T20:35:42.217Z,1.63
2022-08-11T20:38:28.018Z,1.70
2022-08-11T20:41:16.247Z,1.30
2022-08-11T20:44:06.644Z,1.23
2022-08-11T20:46:57.014Z,1.60
2022-08-11T20:49:53.677Z,1.25
2022-08-11T20:52:47.436Z,1.48
2022-08-11T20:55:51.150Z,1.90
2022-08-11T20:59:13.478Z,1.35
2022-08-11T21:01:44.723Z,1.50
2022-08-11T21:04:30.763Z,1.50
2022-08-11T21:07:27.077Z,1.33
2022-08-11T21:10:23.172Z,1.70
2022-08-11T21:13:26.435Z,1.30
2022-08-11T21:16:26.334Z,1.73
2022-08-11T21:19:18.220Z,1.73
2022-08-11T21:22:04.344Z,1.45
2022-08-11T21:24:50.941Z,1.42
2022-08-11T21:27:37.000Z,1.48
2022-08-11T21:30:23.555Z,1.40
2022-08-11T21:33:09.225Z,1.40
2022-08-11T21:35:54.855Z,1.60
2022-08-11T21:38:40.610Z,1.50
2022-08-11T21:41:26.031Z,1.30
2022-08-11T21:44:12.656Z,1.40
2022-08-11T21:46:58.851Z,1.30
2022-08-11T21:49:44.935Z,1.60
2022-08-11T21:52:30.577Z,1.73
2022-08-11T21:55:16.953Z,1.30
2022-08-11T21:58:02.977Z,1.50
2022-08-11T22:00:48.116Z,1.63
2022-08-11T22:03:39.520Z,1.40
2022-08-11T22:06:37.611Z,1.60
2022-08-11T22:09:23.235Z,1.55
2022-08-11T22:12:33.790Z,1.52
2022-08-11T22:15:13.888Z,1.60
2022-08-11T22:17:58.982Z,1.50
2022-08-11T22:20:45.481Z,1.40
2022-08-11T22:23:36.046Z,1.55
2022-08-11T22:26:22.715Z,1.52
2022-08-11T22:29:08.053Z,1.60
2022-08-11T22:31:54.191Z,1.40
2022-08-11T22:34:45.002Z,1.60
2022-08-11T22:37:39.550Z,1.58
2022-08-11T22:40:25.722Z,1.90
2022-08-11T22:43:11.321Z,1.52
2022-08-11T22:45:56.557Z,1.48
2022-08-11T22:48:45.049Z,1.63
2022-08-11T22:51:30.523Z,1.58
2022-08-11T22:54:16.264Z,1.63
2022-08-11T22:57:01.921Z,1.98
2022-08-11T22:59:47.586Z,1.85
2022-08-11T23:02:33.404Z,1.83
2022-08-11T23:05:19.098Z,1.65
2022-08-11T23:08:06.710Z,1.63
2022-08-11T23:10:52.646Z,1.45
2022-08-11T23:13:38.851Z,1.70
2022-08-11T23:16:24.519Z,1.55
2022-08-11T23:19:09.621Z,1.65
2022-08-11T23:21:55.617Z,1.73
2022-08-11T23:24:43.945Z,1.80
2022-08-11T23:27:29.584Z,1.50
2022-08-11T23:30:17.161Z,1.70
2022-08-11T23:33:05.374Z,1.77
2022-08-11T23:35:56.540Z,1.73
2022-08-11T23:38:43.531Z,1.90
2022-08-11T23:41:29.226Z,1.73
2022-08-11T23:44:14.761Z,1.85
2022-08-11T23:47:00.650Z,2.20
2022-08-11T23:49:46.278Z,1.65
2022-08-11T23:52:32.027Z,1.77
2022-08-11T23:55:17.629Z,1.77
2022-08-11T23:58:03.310Z,1.50
